Time;durP1;ratioP1;P1;durP2;ratioP2;P2;SDS_P1;SDS_P2;PMS_P1;PMS_P2;Temp;Humidity;BMP_temperature;BMP_pressure;BME280_temperature;BME280_humidity;BME280_pressure;Samples;Min_cycle;Max_cycle;Signal;HPM_P1;HPM_P2
2023/12/05 00:00:22;;;;;;;2.22;2.03;;;;;;;18.13;44.45;99918.09;5015892;28;20033;-38
2023/12/05 00:02:47;;;;;;;2.25;2.05;;;;;;;18.14;44.68;99907.94;5036131;28;20321;-38
2023/12/05 00:05:12;;;;;;;4.55;2.05;;;;;;;18.12;44.45;99917.28;5041994;28;20509;-36
2023/12/05 00:07:38;;;;;;;2.22;1.77;;;;;;;18.11;44.35;99907.44;5033771;28;20025;-36
2023/12/05 00:10:05;;;;;;;2.67;2.15;;;;;;;18.12;44.39;99900.00;5042204;28;20036;-39
2023/12/05 00:12:30;;;;;;;2.10;1.90;;;;;;;18.12;44.60;99900.00;5035799;28;20517;-36
2023/12/05 00:14:56;;;;;;;4.07;1.80;;;;;;;18.12;44.67;99897.25;5020921;28;20031;-36
2023/12/05 00:17:21;;;;;;;4.95;1.90;;;;;;;18.12;44.55;99900.00;5018151;28;20108;-36
2023/12/05 00:19:47;;;;;;;2.38;1.90;;;;;;;18.11;44.69;99892.88;5041035;28;20040;-36
2023/12/05 00:22:12;;;;;;;1.95;1.80;;;;;;;18.10;44.69;99897.56;5041755;28;20033;-36
2023/12/05 00:24:37;;;;;;;1.98;1.88;;;;;;;18.09;44.53;99900.63;5040491;28;20529;-36
2023/12/05 00:27:03;;;;;;;1.70;1.60;;;;;;;18.07;44.61;99895.41;5030436;28;20273;-36
2023/12/05 00:29:28;;;;;;;2.47;2.28;;;;;;;18.06;44.73;99893.81;5006473;28;20402;-36
2023/12/05 00:31:53;;;;;;;2.15;1.90;;;;;;;18.05;44.65;99900.41;5040457;28;20031;-36
2023/12/05 00:34:19;;;;;;;3.40;1.80;;;;;;;18.03;44.96;99896.34;5041586;28;20460;-39
2023/12/05 00:36:44;;;;;;;2.30;1.80;;;;;;;18.00;44.72;99900.50;5040846;28;20027;-40
2023/12/05 00:39:10;;;;;;;2.78;1.75;;;;;;;18.00;44.80;99900.50;5040305;28;20064;-39
2023/12/05 00:41:35;;;;;;;1.77;1.67;;;;;;;17.99;44.80;99898.88;5033846;28;20382;-39
2023/12/05 00:44:00;;;;;;;5.22;1.98;;;;;;;17.98;44.96;99907.38;5037624;28;20029;-39
2023/12/05 00:46:27;;;;;;;1.90;1.73;;;;;;;17.96;44.65;99905.75;5018029;28;20465;-39
2023/12/05 00:48:52;;;;;;;2.20;2.00;;;;;;;17.95;44.84;99903.28;5032289;28;20501;-39
2023/12/05 00:51:18;;;;;;;2.88;1.60;;;;;;;17.94;44.88;99898.91;5040499;28;20028;-39
2023/12/05 00:53:43;;;;;;;2.05;1.80;;;;;;;17.94;44.91;99898.91;5039412;28;20036;-36
2023/12/05 00:56:11;;;;;;;2.30;1.83;;;;;;;17.92;44.60;99901.94;5036116;28;20492;-35
2023/12/05 00:58:37;;;;;;;1.90;1.80;;;;;;;17.91;45.03;99899.50;5039851;28;20524;-35
2023/12/05 01:01:03;;;;;;;2.03;1.83;;;;;;;17.90;45.05;99897.88;5040661;28;20025;-35
2023/12/05 01:03:28;;;;;;;1.85;1.75;;;;;;;17.88;45.05;99900.91;5022253;28;20025;-35
2023/12/05 01:05:54;;;;;;;2.20;2.00;;;;;;;17.87;44.98;99893.00;5038496;28;20498;-35
2023/12/05 01:08:19;;;;;;;2.75;2.20;;;;;;;17.85;45.12;99893.28;5040598;28;20063;-38
2023/12/05 01:10:44;;;;;;;1.83;1.70;;;;;;;17.83;44.99;99887.31;5039168;28;20339;-38
2023/12/05 01:13:10;;;;;;;2.03;1.92;;;;;;;17.82;45.13;99896.63;5023222;28;20037;-38
2023/12/05 01:15:35;;;;;;;2.15;2.00;;;;;;;17.81;45.15;99895.81;5041179;28;20075;-38
2023/12/05 01:18:01;;;;;;;2.30;2.10;;;;;;;17.79;45.34;99900.78;5035863;28;20039;-38
2023/12/05 01:20:26;;;;;;;2.63;2.22;;;;;;;17.79;45.03;99902.69;5033425;28;20711;-38
2023/12/05 01:22:51;;;;;;;2.28;2.08;;;;;;;17.77;45.28;99903.00;5040502;28;20033;-38
2023/12/05 01:25:17;;;;;;;2.38;2.08;;;;;;;17.76;45.21;99915.06;5023528;28;20437;-39
2023/12/05 01:27:42;;;;;;;2.55;2.25;;;;;;;17.75;45.16;99909.91;5032977;28;20115;-38
2023/12/05 01:30:08;;;;;;;2.15;1.95;;;;;;;17.73;45.27;99901.97;5039631;28;20052;-38
2023/12/05 01:32:33;;;;;;;2.47;2.28;;;;;;;17.72;45.27;99907.72;5040426;28;20056;-38
2023/12/05 01:34:59;;;;;;;2.30;2.10;;;;;;;17.70;45.33;99910.78;5039484;28;20033;-35
2023/12/05 01:37:24;;;;;;;1.92;1.83;;;;;;;17.70;45.42;99907.25;5040408;28;20025;-35
2023/12/05 01:39:49;;;;;;;2.20;2.00;;;;;;;17.70;45.59;99910.78;5040470;28;20035;-35
2023/12/05 01:42:15;;;;;;;2.10;2.00;;;;;;;17.68;45.32;99904.78;5037334;28;20606;-35
2023/12/05 01:44:40;;;;;;;2.20;2.00;;;;;;;17.68;45.35;99914.94;5039974;28;20032;-35
2023/12/05 01:47:05;;;;;;;2.10;2.00;;;;;;;17.67;45.39;99911.38;5040098;28;20589;-35
2023/12/05 01:49:33;;;;;;;2.47;2.20;;;;;;;17.65;45.37;99908.91;5040626;28;20039;-36
2023/12/05 01:51:59;;;;;;;2.88;2.58;;;;;;;17.65;45.47;99908.91;5033847;28;20064;-38
2023/12/05 01:54:26;;;;;;;2.70;2.50;;;;;;;17.64;45.49;99910.06;5044062;28;20550;-39
2023/12/05 01:56:54;;;;;;;2.55;2.35;;;;;;;17.65;45.31;99919.88;5044562;28;20486;-38
2023/12/05 01:59:20;;;;;;;2.85;2.35;;;;;;;17.64;45.40;99922.94;5043750;28;20040;-36
2023/12/05 02:01:49;;;;;;;2.53;2.33;;;;;;;17.64;45.45;99929.25;5022777;28;20110;-36
2023/12/05 02:04:14;;;;;;;2.90;2.40;;;;;;;17.64;45.45;99925.66;5041173;28;20173;-36
2023/12/05 02:06:39;;;;;;;2.53;2.33;;;;;;;17.64;45.50;99922.94;5036606;28;20033;-36
2023/12/05 02:09:06;;;;;;;2.78;2.42;;;;;;;17.64;45.46;99917.44;5007937;28;20032;-36
2023/12/05 02:11:32;;;;;;;2.90;2.40;;;;;;;17.62;45.49;99925.13;5025392;28;20028;-36
2023/12/05 02:13:59;;;;;;;3.40;2.47;;;;;;;17.62;45.55;99930.63;5029136;28;20025;-36
2023/12/05 02:16:35;;;;;;;2.55;2.35;;;;;;;17.61;45.52;99931.75;5044618;28;20031;-36
2023/12/05 02:19:16;;;;;;;2.60;2.40;;;;;;;17.61;45.40;99927.09;5021969;28;20428;-36
2023/12/05 02:21:42;;;;;;;3.65;2.60;;;;;;;17.61;45.51;99924.34;5042416;28;20087;-36
2023/12/05 02:24:31;;;;;;;2.53;2.33;;;;;;;17.60;45.54;99927.38;5042724;28;20595;-36
2023/12/05 02:27:16;;;;;;;2.60;2.40;;;;;;;17.58;45.54;99921.38;5044201;28;20394;-36
2023/12/05 02:29:46;;;;;;;2.38;2.17;;;;;;;17.58;45.44;99922.22;5042182;28;20052;-36
2023/12/05 02:32:12;;;;;;;2.40;2.20;;;;;;;17.57;45.51;99920.56;5042375;28;20021;-38
2023/12/05 02:34:37;;;;;;;2.90;2.60;;;;;;;17.57;45.52;99930.69;5043304;28;20052;-39
2023/12/05 02:37:07;;;;;;;2.42;2.22;;;;;;;17.56;45.42;99927.16;5025774;28;20023;-39
2023/12/05 02:39:38;;;;;;;2.90;2.67;;;;;;;17.55;45.64;99928.25;5040586;28;20539;-39
2023/12/05 02:42:08;;;;;;;2.60;2.40;;;;;;;17.56;45.53;99927.16;5041570;28;20388;-39
2023/12/05 02:44:41;;;;;;;2.75;2.38;;;;;;;17.55;45.41;99931.00;5035749;28;20022;-38
2023/12/05 02:47:08;;;;;;;2.40;2.20;;;;;;;17.54;45.62;99923.88;5020850;28;20029;-39
2023/12/05 02:49:33;;;;;;;2.53;2.33;;;;;;;17.54;45.39;99926.63;5036802;28;20033;-38
2023/12/05 02:51:59;;;;;;;2.60;2.40;;;;;;;17.55;45.62;99925.53;5024847;28;20039;-39
2023/12/05 02:54:24;;;;;;;2.90;2.70;;;;;;;17.54;45.35;99931.31;5035019;28;20033;-38
2023/12/05 02:56:49;;;;;;;2.65;2.45;;;;;;;17.53;45.50;99929.66;5039295;28;20316;-38
2023/12/05 02:59:15;;;;;;;2.83;2.50;;;;;;;17.52;45.55;99930.78;5022356;28;20032;-38
2023/12/05 03:01:40;;;;;;;3.03;2.72;;;;;;;17.51;45.58;99929.97;5042526;28;20039;-38
2023/12/05 03:04:06;;;;;;;2.70;2.50;;;;;;;17.49;45.69;99932.19;5043024;28;20017;-38
2023/12/05 03:06:31;;;;;;;4.00;2.67;;;;;;;17.50;45.61;99931.09;5036019;28;20510;-38
2023/12/05 03:08:56;;;;;;;2.70;2.50;;;;;;;17.48;45.54;99931.38;5013051;28;20106;-38
2023/12/05 03:11:22;;;;;;;2.58;2.38;;;;;;;17.49;45.60;99941.22;5005642;28;20048;-38
2023/12/05 03:13:47;;;;;;;4.28;2.30;;;;;;;17.48;45.41;99936.88;5005774;28;20033;-38
2023/12/05 03:16:12;;;;;;;2.40;2.20;;;;;;;17.47;45.53;99929.75;5042345;28;20021;-38
2023/12/05 03:18:38;;;;;;;2.58;2.33;;;;;;;17.47;45.54;99927.00;5040686;28;20052;-35
2023/12/05 03:21:04;;;;;;;2.50;2.30;;;;;;;17.46;45.45;99927.28;5044948;28;20025;-35
2023/12/05 03:23:30;;;;;;;2.50;2.30;;;;;;;17.47;45.43;99931.66;5040813;28;20044;-35
2023/12/05 03:25:55;;;;;;;2.75;2.55;;;;;;;17.46;45.51;99936.34;5019139;28;20103;-35
2023/12/05 03:28:20;;;;;;;2.70;2.50;;;;;;;17.45;45.31;99931.97;5025959;28;20275;-35
2023/12/05 03:30:46;;;;;;;2.72;2.50;;;;;;;17.45;45.46;99931.16;5038446;28;20096;-38
2023/12/05 03:33:12;;;;;;;2.50;2.30;;;;;;;17.43;45.46;99925.94;5042473;28;20045;-38
2023/12/05 03:35:37;;;;;;;2.70;2.50;;;;;;;17.44;45.43;99930.31;5042516;28;20055;-38
2023/12/05 03:38:03;;;;;;;3.42;2.50;;;;;;;17.42;45.57;99920.78;5044615;28;20021;-38
2023/12/05 03:40:29;;;;;;;2.45;2.25;;;;;;;17.41;45.45;99922.72;5046331;28;20692;-39
2023/12/05 03:42:55;;;;;;;2.50;2.30;;;;;;;17.40;45.49;99921.09;5044540;28;20029;-36
2023/12/05 03:45:20;;;;;;;2.80;2.60;;;;;;;17.39;45.63;99924.94;5046707;28;20021;-38
2023/12/05 03:47:46;;;;;;;2.60;2.40;;;;;;;17.39;45.43;99927.66;5045932;28;20040;-38
2023/12/05 03:50:11;;;;;;;2.50;2.30;;;;;;;17.38;45.46;99922.50;5040486;28;20028;-39
2023/12/05 03:52:37;;;;;;;2.50;2.30;;;;;;;17.37;45.53;99923.59;5042421;28;20025;-38
2023/12/05 03:55:02;;;;;;;2.53;2.33;;;;;;;17.36;45.46;99930.16;5021245;28;20100;-36
2023/12/05 03:57:27;;;;;;;2.50;2.30;;;;;;;17.35;45.56;99928.53;5025161;28;20417;-36
2023/12/05 03:59:53;;;;;;;2.38;2.17;;;;;;;17.35;45.60;99928.53;5048467;28;20078;-35
2023/12/05 04:02:18;;;;;;;2.30;2.10;;;;;;;17.33;45.53;99929.66;5044024;28;20128;-36
2023/12/05 04:04:43;;;;;;;3.10;2.20;;;;;;;17.32;45.44;99933.50;5045045;28;20428;-36
2023/12/05 04:07:09;;;;;;;2.45;2.25;;;;;;;17.32;45.67;99940.91;5046227;28;20064;-35
2023/12/05 04:09:34;;;;;;;2.42;2.22;;;;;;;17.33;45.54;99945.28;5041164;28;20044;-35
2023/12/05 04:12:00;;;;;;;2.40;2.20;;;;;;;17.31;45.57;99951.06;5052605;28;20036;-36
2023/12/05 04:14:25;;;;;;;2.50;2.30;;;;;;;17.31;45.62;99953.78;5025839;28;20398;-36
2023/12/05 04:16:50;;;;;;;2.17;2.08;;;;;;;17.31;45.59;99955.69;5044239;28;20159;-35
2023/12/05 04:19:16;;;;;;;2.42;2.20;;;;;;;17.30;45.52;99954.06;5047275;28;20033;-35
2023/12/05 04:21:41;;;;;;;2.55;2.35;;;;;;;17.29;45.57;99964.22;5004714;28;20026;-36
2023/12/05 04:24:07;;;;;;;2.72;2.40;;;;;;;17.30;45.62;99963.09;5037260;28;20033;-36
2023/12/05 04:26:32;;;;;;;2.47;2.28;;;;;;;17.30;45.60;99970.50;5021505;28;20074;-36
2023/12/05 04:28:58;;;;;;;2.40;2.20;;;;;;;17.29;45.57;99975.16;5039506;28;20564;-35
2023/12/05 04:31:29;;;;;;;2.17;2.08;;;;;;;17.29;45.57;99983.38;5043463;28;20025;-39
2023/12/05 04:33:55;;;;;;;2.67;2.35;;;;;;;17.28;45.50;99979.00;5043669;28;20508;-36
2023/12/05 04:36:23;;;;;;;2.50;2.30;;;;;;;17.28;45.62;99989.16;5043321;28;20037;-36
2023/12/05 04:38:48;;;;;;;3.38;2.42;;;;;;;17.27;45.58;99988.34;5040237;28;20473;-36
2023/12/05 04:41:13;;;;;;;2.20;2.00;;;;;;;17.27;45.60;99993.81;5041494;28;20032;-38
2023/12/05 04:43:39;;;;;;;2.20;2.10;;;;;;;17.25;45.47;99987.00;5041322;28;20417;-39
2023/12/05 04:46:04;;;;;;;2.53;2.33;;;;;;;17.23;45.50;99990.03;5045020;28;20686;-39
2023/12/05 04:48:30;;;;;;;2.35;2.15;;;;;;;17.22;45.58;99991.13;5044674;28;20035;-38
2023/12/05 04:50:55;;;;;;;2.58;2.38;;;;;;;17.23;45.80;99994.69;5041415;28;20032;-39
2023/12/05 04:53:20;;;;;;;2.22;2.03;;;;;;;17.23;45.70;100002.91;5042467;28;20612;-39
2023/12/05 04:55:46;;;;;;;5.88;2.40;;;;;;;17.22;45.82;99993.06;5050491;28;20083;-38
2023/12/05 04:58:11;;;;;;;2.47;2.28;;;;;;;17.22;45.97;99995.81;5042379;28;20050;-39
2023/12/05 05:00:36;;;;;;;2.60;2.40;;;;;;;17.21;45.88;99994.97;5038525;28;20037;-39
2023/12/05 05:03:02;;;;;;;2.83;2.40;;;;;;;17.24;45.86;99999.06;5046550;28;20078;-38
2023/12/05 05:05:28;;;;;;;2.40;2.20;;;;;;;17.28;45.80;99994.63;5041820;28;20493;-38
2023/12/05 05:07:53;;;;;;;2.60;2.40;;;;;;;17.31;45.62;100005.00;5044750;28;20112;-38
2023/12/05 05:10:19;;;;;;;2.40;2.20;;;;;;;17.36;45.66;99993.16;5042006;28;20129;-39
2023/12/05 05:12:44;;;;;;;2.50;2.30;;;;;;;17.42;45.54;99998.28;5041291;28;20025;-39
2023/12/05 05:15:10;;;;;;;2.67;2.40;;;;;;;17.48;45.60;100007.25;5049031;28;20105;-39
2023/12/05 05:17:35;;;;;;;2.38;2.17;;;;;;;17.55;45.66;100012.41;5042349;28;20079;-36
2023/12/05 05:20:00;;;;;;;3.83;2.30;;;;;;;17.61;45.63;100008.47;5047827;28;20052;-36
2023/12/05 05:22:26;;;;;;;2.53;2.30;;;;;;;17.71;45.53;100015.75;5041016;28;20378;-36
2023/12/05 05:24:52;;;;;;;2.50;2.30;;;;;;;17.80;45.44;100005.75;5024607;28;20028;-36
2023/12/05 05:27:17;;;;;;;2.50;2.30;;;;;;;17.91;45.38;100009.16;5048837;28;20048;-36
2023/12/05 05:29:43;;;;;;;2.60;2.38;;;;;;;17.99;45.24;100011.28;5054846;28;20032;-36
2023/12/05 05:32:08;;;;;;;2.58;2.30;;;;;;;18.09;45.03;100013.03;5028645;28;20041;-36
2023/12/05 05:34:34;;;;;;;2.50;2.30;;;;;;;18.19;45.03;100026.59;5052462;28;20063;-36
2023/12/05 05:36:59;;;;;;;2.47;2.28;;;;;;;18.28;44.88;100011.09;5046292;28;20039;-36
2023/12/05 05:39:25;;;;;;;2.58;2.38;;;;;;;18.38;44.88;100021.09;5049355;28;20100;-39
2023/12/05 05:41:50;;;;;;;2.70;2.40;;;;;;;18.47;44.79;100015.72;5044997;28;20064;-39
2023/12/05 05:44:16;;;;;;;2.50;2.25;;;;;;;18.55;44.61;100016.97;5045897;28;20393;-39
2023/12/05 05:46:41;;;;;;;2.42;2.22;;;;;;;18.63;44.67;100021.78;5044518;28;20528;-39
2023/12/05 05:49:07;;;;;;;2.30;2.10;;;;;;;18.73;44.60;100029.81;5036678;28;20036;-39
2023/12/05 05:51:33;;;;;;;2.50;2.20;;;;;;;18.82;44.18;100031.88;5042930;28;20436;-38
2023/12/05 05:53:58;;;;;;;2.60;2.30;;;;;;;18.89;44.44;100030.38;5046217;28;20033;-38
2023/12/05 05:56:24;;;;;;;2.30;2.15;;;;;;;18.95;44.15;100028.38;5045435;28;20414;-38
2023/12/05 05:58:50;;;;;;;2.80;2.30;;;;;;;19.02;44.12;100033.50;5044114;28;20110;-39
2023/12/05 06:01:15;;;;;;;2.50;2.30;;;;;;;19.06;44.33;100031.75;5047836;28;20025;-36
2023/12/05 06:03:41;;;;;;;2.40;2.20;;;;;;;19.08;44.10;100030.34;5046158;28;20028;-36
2023/12/05 06:06:07;;;;;;;2.58;2.38;;;;;;;19.08;44.10;100035.03;5045262;28;20024;-36
2023/12/05 06:08:32;;;;;;;3.30;2.42;;;;;;;19.08;44.13;100026.78;5049245;28;20458;-36
2023/12/05 06:10:58;;;;;;;3.17;2.50;;;;;;;19.07;43.93;100030.66;5046273;28;20321;-39
2023/12/05 06:13:23;;;;;;;3.13;2.38;;;;;;;19.05;44.06;100035.63;5029737;28;20032;-39
2023/12/05 06:15:49;;;;;;;2.40;2.20;;;;;;;19.01;44.35;100043.66;5047523;28;20060;-39
2023/12/05 06:18:17;;;;;;;2.28;2.08;;;;;;;18.97;44.17;100052.78;5029391;28;20357;-39
2023/12/05 06:20:46;;;;;;;2.33;2.13;;;;;;;18.92;44.19;100054.53;5043629;28;20482;-39
2023/12/05 06:23:11;;;;;;;2.40;2.20;;;;;;;18.89;44.16;100055.06;5043048;28;20047;-39
2023/12/05 06:25:37;;;;;;;2.95;2.20;;;;;;;18.86;44.23;100060.34;5026983;28;20477;-39
2023/12/05 06:28:03;;;;;;;2.42;2.22;;;;;;;18.83;44.33;100061.78;5044239;28;20020;-39
2023/12/05 06:30:28;;;;;;;2.33;2.13;;;;;;;18.80;44.43;100053.31;5044142;28;20343;-39
2023/12/05 06:32:53;;;;;;;2.45;2.25;;;;;;;18.77;44.29;100062.97;5026261;28;20051;-39
2023/12/05 06:35:19;;;;;;;2.45;2.25;;;;;;;18.75;44.31;100055.06;5027921;28;20032;-39
2023/12/05 06:37:44;;;;;;;2.55;2.20;;;;;;;18.76;44.41;100064.91;5045119;28;20046;-41
2023/12/05 06:40:10;;;;;;;2.92;2.35;;;;;;;18.76;44.34;100072.31;5045250;28;20491;-39
2023/12/05 06:42:37;;;;;;;2.90;2.70;;;;;;;18.77;44.43;100066.56;5025215;28;20378;-39
2023/12/05 06:45:02;;;;;;;2.60;2.40;;;;;;;18.80;44.22;100080.78;5048014;28;20412;-39
2023/12/05 06:47:28;;;;;;;2.58;2.38;;;;;;;18.82;44.24;100079.38;5042040;28;20036;-39
2023/12/05 06:49:53;;;;;;;2.60;2.40;;;;;;;18.85;44.38;100091.69;5031439;28;20354;-39
2023/12/05 06:52:19;;;;;;;2.90;2.60;;;;;;;18.86;44.42;100093.28;5048441;28;20275;-39
2023/12/05 06:54:45;;;;;;;2.42;2.22;;;;;;;18.88;44.04;100102.91;5043432;28;20037;-39
2023/12/05 06:57:11;;;;;;;2.80;2.60;;;;;;;18.89;44.21;100104.50;5024994;28;20087;-36
2023/12/05 06:59:37;;;;;;;2.35;2.15;;;;;;;18.91;44.29;100113.28;5041652;28;20060;-36
2023/12/05 07:02:02;;;;;;;2.97;2.30;;;;;;;18.91;44.21;100124.28;5023254;28;20028;-36
2023/12/05 07:04:28;;;;;;;3.25;2.40;;;;;;;18.91;44.12;100120.72;5042108;28;20563;-36
2023/12/05 07:06:53;;;;;;;3.20;2.30;;;;;;;18.88;44.21;100133.09;5043008;28;20108;-37
2023/12/05 07:09:19;;;;;;;2.45;2.25;;;;;;;18.88;44.42;100129.50;5018135;28;20112;-36
2023/12/05 07:11:45;;;;;;;2.58;2.33;;;;;;;18.85;44.23;100136.41;5035214;28;20024;-36
2023/12/05 07:14:13;;;;;;;2.40;2.20;;;;;;;18.81;44.29;100132.66;5038702;28;20052;-36
2023/12/05 07:16:38;;;;;;;2.20;2.00;;;;;;;18.79;44.31;100134.88;5035972;28;20216;-36
2023/12/05 07:19:04;;;;;;;4.18;2.20;;;;;;;18.76;44.29;100140.94;5043211;28;20388;-36
2023/12/05 07:21:29;;;;;;;2.17;2.00;;;;;;;18.75;44.37;100140.16;5041572;28;20138;-36
2023/12/05 07:23:55;;;;;;;2.60;2.40;;;;;;;18.75;44.56;100142.09;5025390;28;20021;-37
2023/12/05 07:26:20;;;;;;;2.60;2.40;;;;;;;18.76;44.45;100143.69;5038537;28;20103;-36
2023/12/05 07:28:45;;;;;;;2.88;2.63;;;;;;;18.76;44.54;100147.28;5025213;28;20100;-35
2023/12/05 07:31:11;;;;;;;2.50;2.30;;;;;;;18.79;44.54;100147.81;5043278;28;20040;-35
2023/12/05 07:33:36;;;;;;;2.45;2.25;;;;;;;18.80;44.27;100152.97;5041721;28;20347;-36
2023/12/05 07:36:04;;;;;;;2.58;2.38;;;;;;;18.82;44.35;100159.00;5040328;28;20068;-35
2023/12/05 07:38:30;;;;;;;3.45;2.20;;;;;;;18.84;44.32;100158.69;5043655;28;20386;-36
2023/12/05 07:40:55;;;;;;;2.35;2.17;;;;;;;18.85;44.52;100158.38;5043076;28;20020;-36
2023/12/05 07:43:20;;;;;;;2.40;2.17;;;;;;;18.87;44.39;100163.56;5043432;28;20033;-36
2023/12/05 07:45:46;;;;;;;4.03;2.30;;;;;;;18.88;44.29;100168.78;5042620;28;20082;-36
2023/12/05 07:48:11;;;;;;;2.50;2.30;;;;;;;18.88;44.40;100167.94;5040881;28;20480;-35
2023/12/05 07:50:37;;;;;;;4.32;2.33;;;;;;;18.87;44.38;100164.41;5042989;28;20403;-36
2023/12/05 07:53:02;;;;;;;2.40;2.20;;;;;;;18.87;44.24;100174.56;5039371;28;20524;-36
2023/12/05 07:55:28;;;;;;;2.35;2.20;;;;;;;18.86;44.44;100173.75;5025047;28;20017;-36
2023/12/05 07:57:53;;;;;;;2.30;2.10;;;;;;;18.83;44.28;100182.56;5041481;28;20033;-36
2023/12/05 08:00:19;;;;;;;2.30;2.10;;;;;;;18.80;44.34;100185.09;5043530;28;20555;-36
2023/12/05 08:02:45;;;;;;;2.40;2.08;;;;;;;18.76;44.45;100193.94;5038020;28;20029;-36
2023/12/05 08:05:11;;;;;;;2.67;2.38;;;;;;;18.73;44.40;100188.22;5039247;28;20022;-36
2023/12/05 08:07:37;;;;;;;2.50;2.30;;;;;;;18.71;44.40;100190.44;5036421;28;20029;-36
2023/12/05 08:10:04;;;;;;;2.40;2.20;;;;;;;18.67;44.51;100195.72;5017456;28;20036;-35
2023/12/05 08:12:29;;;;;;;2.70;2.40;;;;;;;18.66;44.71;100198.75;5033536;28;20043;-35
2023/12/05 08:14:55;;;;;;;4.22;2.38;;;;;;;18.66;44.65;100207.78;5033329;28;20029;-39
2023/12/05 08:17:20;;;;;;;2.45;2.25;;;;;;;18.66;44.56;100209.75;5034363;28;20082;-35
2023/12/05 08:19:45;;;;;;;2.72;2.38;;;;;;;18.66;44.63;100221.53;5023533;28;20416;-35
2023/12/05 08:22:11;;;;;;;4.43;2.40;;;;;;;18.67;44.68;100217.66;5043049;28;20269;-35
2023/12/05 08:24:36;;;;;;;4.07;2.67;;;;;;;18.69;44.66;100220.94;5024725;28;20104;-38
2023/12/05 08:27:02;;;;;;;2.53;2.33;;;;;;;18.72;44.76;100225.84;5037096;28;20028;-35
2023/12/05 08:29:27;;;;;;;2.92;2.58;;;;;;;18.75;44.84;100216.22;5043418;28;20029;-36
2023/12/05 08:31:53;;;;;;;4.93;2.35;;;;;;;18.76;44.71;100218.66;5041141;28;20501;-36
2023/12/05 08:34:18;;;;;;;2.97;2.40;;;;;;;18.79;44.71;100224.66;5036910;28;20037;-35
2023/12/05 08:36:45;;;;;;;3.30;2.55;;;;;;;18.81;44.58;100234.25;5040410;28;20489;-38
2023/12/05 08:39:11;;;;;;;3.30;2.70;;;;;;;18.81;44.61;100234.25;5043203;28;20114;-39
2023/12/05 08:41:37;;;;;;;3.65;2.70;;;;;;;18.81;44.59;100234.25;5040295;28;20029;-38
2023/12/05 08:44:02;;;;;;;3.38;2.75;;;;;;;18.82;44.56;100246.84;5042625;28;20028;-38
2023/12/05 08:46:28;;;;;;;4.78;2.60;;;;;;;18.81;44.58;100244.38;5035745;28;20021;-38
2023/12/05 08:48:53;;;;;;;3.28;2.78;;;;;;;18.78;44.40;100251.28;5041559;28;20055;-38
2023/12/05 08:51:18;;;;;;;2.90;2.60;;;;;;;18.75;44.78;100252.69;5043174;28;20032;-38
2023/12/05 08:53:44;;;;;;;3.40;2.67;;;;;;;18.73;44.67;100260.41;5025850;28;20032;-38
2023/12/05 08:56:10;;;;;;;3.97;2.80;;;;;;;18.69;44.49;100256.63;5024112;28;20378;-38
2023/12/05 08:58:36;;;;;;;3.17;2.25;;;;;;;18.67;44.57;100260.78;5044292;28;20028;-38
2023/12/05 09:01:02;;;;;;;3.58;2.67;;;;;;;18.64;44.56;100258.59;5042257;28;20033;-35
2023/12/05 09:03:29;;;;;;;4.00;2.45;;;;;;;18.63;44.60;100260.56;5041156;28;20385;-35
2023/12/05 09:05:54;;;;;;;3.20;2.60;;;;;;;18.60;44.63;100259.22;5043693;28;20523;-38
2023/12/05 09:08:21;;;;;;;4.55;2.67;;;;;;;18.58;44.85;100266.91;5038710;28;20025;-38
2023/12/05 09:10:46;;;;;;;3.72;2.80;;;;;;;18.57;44.61;100264.47;5040199;28;20029;-38
2023/12/05 09:13:11;;;;;;;2.90;2.60;;;;;;;18.55;44.82;100266.69;5034923;28;20034;-38
2023/12/05 09:15:37;;;;;;;5.55;2.58;;;;;;;18.52;44.58;100259.06;5013299;28;20047;-39
2023/12/05 09:18:02;;;;;;;3.95;3.00;;;;;;;18.51;44.55;100269.22;5042421;28;20058;-39
2023/12/05 09:20:28;;;;;;;3.63;2.85;;;;;;;18.48;44.75;100272.56;5042032;28;20028;-39
2023/12/05 09:22:54;;;;;;;3.25;2.80;;;;;;;18.46;44.80;100268.47;5043216;28;20058;-39
2023/12/05 09:25:20;;;;;;;99.75;5.82;;;;;;;18.43;44.96;100273.44;5044418;28;20017;-41
2023/12/05 09:27:45;;;;;;;12.20;3.00;;;;;;;18.44;45.38;100275.06;5044799;28;20037;-38
2023/12/05 09:30:12;;;;;;;13.13;2.90;;;;;;;18.48;45.65;100290.94;5043275;28;20481;-37
2023/12/05 09:32:37;;;;;;;10.45;3.03;;;;;;;18.53;45.63;100280.72;5043245;28;20060;-37
2023/12/05 09:35:04;;;;;;;6.93;3.15;;;;;;;18.59;45.70;100290.50;5044454;28;20149;-37
2023/12/05 09:37:30;;;;;;;10.38;3.70;;;;;;;18.65;45.62;100291.28;5043675;28;20027;-38
2023/12/05 09:39:55;;;;;;;5.53;3.60;;;;;;;18.73;45.54;100300.78;5026425;28;20029;-37
2023/12/05 09:42:24;;;;;;;6.88;3.90;;;;;;;18.79;45.11;100307.03;5043345;28;20094;-37
2023/12/05 09:44:50;;;;;;;5.15;3.65;;;;;;;18.86;44.92;100312.94;5036621;28;20033;-37
2023/12/05 09:47:19;;;;;;;7.05;4.25;;;;;;;18.91;44.79;100316.47;5014574;28;20369;-37
2023/12/05 09:49:45;;;;;;;5.68;3.88;;;;;;;18.96;44.47;100317.50;5044849;28;20029;-40
2023/12/05 09:52:11;;;;;;;6.13;3.58;;;;;;;19.02;44.50;100324.59;5016033;28;20087;-38
2023/12/05 09:54:37;;;;;;;6.93;4.10;;;;;;;19.06;44.39;100331.91;5026683;28;20028;-37
2023/12/05 09:57:03;;;;;;;5.82;3.80;;;;;;;19.11;44.27;100330.22;5044626;28;20028;-37
2023/12/05 09:59:28;;;;;;;6.13;3.60;;;;;;;19.15;44.35;100334.81;5026486;28;20029;-37
2023/12/05 10:01:56;;;;;;;4.75;3.35;;;;;;;19.18;44.42;100330.69;5025385;28;20473;-37
2023/12/05 10:04:22;;;;;;;5.65;3.60;;;;;;;19.20;44.40;100333.94;5043951;28;20024;-38
2023/12/05 10:06:48;;;;;;;6.47;3.72;;;;;;;19.23;44.22;100336.09;5044523;28;20033;-35
2023/12/05 10:09:14;;;;;;;8.05;4.20;;;;;;;19.25;44.05;100347.59;5043745;28;20238;-37
2023/12/05 10:11:40;;;;;;;5.82;3.92;;;;;;;19.26;44.20;100342.91;5045480;28;20009;-41
2023/12/05 10:14:06;;;;;;;6.50;4.35;;;;;;;19.27;44.14;100348.13;5028363;28;20056;-36
2023/12/05 10:16:32;;;;;;;7.15;4.10;;;;;;;19.28;43.85;100338.75;5047647;28;20021;-38
2023/12/05 10:18:57;;;;;;;6.57;4.10;;;;;;;19.30;43.90;100349.44;5029378;28;20080;-40
2023/12/05 10:21:22;;;;;;;7.28;4.55;;;;;;;19.30;43.68;100344.78;5022020;28;20155;-41
2023/12/05 10:23:49;;;;;;;6.68;4.15;;;;;;;19.31;43.68;100349.16;5045986;28;20393;-40
2023/12/05 10:26:15;;;;;;;6.40;4.25;;;;;;;19.31;43.71;100360.16;5045467;28;20118;-41
2023/12/05 10:28:51;;;;;;;8.57;4.78;;;;;;;19.32;43.68;100363.72;5028797;28;20599;-41
2023/12/05 10:31:17;;;;;;;6.88;4.47;;;;;;;19.33;43.41;100359.84;5028765;28;20055;-40
2023/12/05 10:33:42;;;;;;;7.97;5.00;;;;;;;19.34;43.58;100365.03;5039760;28;20068;-38
2023/12/05 10:36:11;;;;;;;7.38;4.47;;;;;;;19.34;43.36;100367.78;5047224;28;20071;-38
2023/12/05 10:38:36;;;;;;;8.32;4.40;;;;;;;19.38;43.54;100371.56;5043723;28;20763;-42
2023/12/05 10:41:02;;;;;;;9.48;5.00;;;;;;;19.39;43.43;100375.97;5047298;28;20036;-39
2023/12/05 10:43:30;;;;;;;7.63;4.18;;;;;;;19.42;43.46;100376.47;5044616;28;20091;-41
2023/12/05 10:45:57;;;;;;;10.32;5.18;;;;;;;19.46;43.71;100383.00;5042937;28;20025;-39
2023/12/05 10:48:23;;;;;;;15.13;5.82;;;;;;;19.48;43.99;100376.09;5044398;28;20052;-39
2023/12/05 10:50:49;;;;;;;13.80;6.18;;;;;;;19.54;44.01;100383.16;5039456;28;20080;-41
2023/12/05 10:53:15;;;;;;;15.43;5.65;;;;;;;19.59;43.88;100376.75;5047039;28;20024;-39
2023/12/05 10:55:41;;;;;;;10.32;4.35;;;;;;;19.63;43.57;100383.31;5049355;28;20087;-41
2023/12/05 10:58:11;;;;;;;16.80;4.15;;;;;;;19.64;43.82;100384.13;5044394;28;20515;-41
2023/12/05 11:00:36;;;;;;;8.18;4.15;;;;;;;19.63;44.07;100385.22;5046097;28;20458;-39
2023/12/05 11:03:05;;;;;;;12.60;4.25;;;;;;;19.61;43.92;100393.78;5025305;28;20033;-37
2023/12/05 11:05:32;;;;;;;7.28;3.70;;;;;;;19.56;44.04;100400.16;5043457;28;20035;-37
2023/12/05 11:07:58;;;;;;;16.30;4.30;;;;;;;19.55;43.97;100404.03;5022141;28;20040;-36
2023/12/05 11:10:25;;;;;;;17.10;4.30;;;;;;;19.56;44.57;100402.91;5046403;28;20025;-38
2023/12/05 11:12:52;;;;;;;10.52;4.30;;;;;;;19.60;44.51;100394.91;5051644;28;20029;-37
2023/12/05 11:15:21;;;;;;;11.75;4.38;;;;;;;19.64;44.27;100403.38;5046048;28;20094;-38
2023/12/05 11:17:58;;;;;;;6.78;3.95;;;;;;;19.66;43.97;100398.41;5045347;28;20114;-37
2023/12/05 11:20:51;;;;;;;7.47;4.05;;;;;;;19.72;44.13;100389.75;5043813;28;20037;-37
2023/12/05 11:23:39;;;;;;;9.35;4.18;;;;;;;19.76;43.65;100398.22;5037779;28;20511;-38